Station: Wilcannia Airport  

  Atmospheric Gas Attenuation - ITU Rec 676-11   ----------------- dB/100km -----------------
Date Time Temp RH % AH g/m3 Dew Point Wind Direction Speed kph Gust kph Barometer mB Rainfall Since 9am 24GHz 47GHz 76GHz 122GHz 134GHz 241GHz
08/05 12:30 16.8 52 7.43 6.9 24 35 1028.1 0 17.0 23.8 34.5 90.2 81.2 278.4
08/05 12:20 17.2 52 7.61 7.3 28 32 1028.4 0 17.3 24.0 35.0 91.5 83.0 284.9
08/05 12:10 16.4 54 7.54 7.1 26 30 1028.5 0 17.2 24.1 35.1 91.8 83.0 284.7
08/05 12:00 16.6 54 7.63 7.3 22 32 1028.6 0 17.4 24.2 35.4 92.5 83.9 287.9
08/05 11:50 16.8 54 7.72 7.4 20 22 1028.7 0 17.6 24.2 35.6 93.1 84.8 291.1
08/05 11:40 16.4 54 7.54 7.1 26 30 1028.8 0 17.2 24.1 35.1 91.8 83.0 284.8
08/05 11:30 16.2 55 7.58 7.2 24 37 1028.8 0 17.3 24.2 35.4 92.4 83.7 287.2
08/05 11:20 16 55 7.49 7 22 26 1028.9 0 17.1 24.1 35.1 91.8 82.8 284.0
08/05 11:10 15.5 56 7.4 6.8 22 26 1029 0 16.9 24.1 35.0 91.4 82.2 281.9
08/05 11:00 15.8 58 7.81 7.6 24 33 1029 0 17.8 24.7 36.4 95.3 87.1 298.8
08/05 10:50 16 58 7.9 7.7 20 28 1029.1 0 18.0 24.8 36.7 95.9 88.0 302.1
08/05 10:40 15.4 57 7.49 6.9 28 32 1029.1 0 17.1 24.3 35.4 92.5 83.5 286.2
08/05 10:30 15.4 57 7.49 6.9 26 35 1029.2 0 17.1 24.3 35.4 92.5 83.5 286.2
08/05 10:20 15.1 58 7.48 6.9 24 28 1029.3 0 17.1 24.4 35.5 92.7 83.7 286.9
08/05 10:10 14.8 60 7.6 7.1 20 26 1029.3 0 17.4 24.6 36.1 94.3 85.5 293.3
08/05 10:00 14.3 60 7.37 6.6 20 30 1029.3 0 16.9 24.4 35.4 92.5 83.1 284.9
08/05 09:50 13.6 61 7.18 6.2 20 26 1029.3 0 16.6 24.3 35.0 91.4 81.5 278.9
08/05 09:40 13.1 62 7.08 6 20 26 1029.3 0 16.4 24.3 34.8 90.9 80.7 276.2
08/05 09:30 12.9 64 7.21 6.3 17 24 1029.3 0 16.7 24.5 35.4 92.5 82.6 282.7
08/05 09:20 12.1 65 6.97 5.7 17 20 1029.4 0 16.2 24.4 34.8 90.9 80.3 274.7
08/05 09:10 11.4 66 6.78 5.3 19 20 1029.3 0 15.8 24.3 34.4 89.7 78.6 268.5
08/05 09:00 10.8 68 6.72 5.1 20 26 1029.3 0 15.7 24.3 34.4 89.8 78.4 267.8
08/05 08:50 10.3 69 6.61 4.9 20 24 1029.2 0 15.5 24.3 34.2 89.2 77.5 264.5
08/05 08:40 9.6 71 6.51 4.6 20 24 1029.2 0 15.3 24.3 34.1 88.9 76.9 262.2
08/05 08:30 8.8 73 6.36 4.2 13 19 1029.1 0 15.0 24.3 33.8 88.2 75.7 258.0
08/05 08:20 7.9 75 6.16 3.8 11 13 1029 0 14.6 24.2 33.4 87.1 73.9 251.6
08/05 08:10 7.1 78 6.09 3.5 11 13 1028.9 0 14.5 24.3 33.5 87.2 73.7 250.9
08/05 08:00 6.4 80 5.96 3.2 11 15 1028.9 0 14.2 24.3 33.2 86.6 72.6 247.0
08/05 07:50 5.7 82 5.84 2.9 11 11 1028.8 0 14.0 24.3 33.0 86.0 71.7 243.6
08/05 07:40 5.1 84 5.75 2.6 9 11 1028.7 0 13.8 24.3 32.9 85.7 71.0 241.1
08/05 07:30 4.5 84 5.53 2 13 13 1028.7 0 13.4 24.1 32.3 84.0 68.6 232.6
08/05 07:20 4.2 85 5.48 1.9 13 13 1028.7 0 13.3 24.1 32.2 83.7 68.2 231.1
08/05 07:10 3.8 85 5.34 1.5 13 13 1028.6 0 13.0 23.9 31.8 82.6 66.7 225.6
08/05 07:00 3.7 85 5.3 1.4 11 11 1028.6 0 12.9 23.9 31.6 82.3 66.2 224.0
08/05 06:50 3.7 85 5.3 1.4 11 11 1028.4 0 12.9 23.9 31.6 82.3 66.2 224.0
08/05 06:40 3.6 85 5.27 1.3 11 11 1028.4 0 12.9 23.9 31.5 82.1 65.9 222.9
08/05 06:30 3.6 84 5.2 1.2 13 13 1028.4 0 12.7 23.8 31.3 81.3 64.9 219.6
08/05 06:20 3.6 83 5.14 1 11 11 1028.3 0 12.6 23.7 31.0 80.6 64.1 216.7
08/05 06:10 3.7 81 5.05 0.7 9 11 1028.2 0 12.4 23.5 30.6 79.6 62.8 212.2
08/05 06:00 4.2 80 5.16 1.1 11 13 1028.1 0 12.6 23.5 30.9 80.2 63.9 216.0
08/05 05:50 4.5 80 5.26 1.4 13 13 1028.3 0 12.8 23.6 31.2 81.0 65.0 219.9
08/05 05:40 4.5 80 5.26 1.4 13 13 1028.3 0 12.8 23.6 31.2 81.0 65.0 219.9
08/05 05:30 4.4 80 5.23 1.3 13 15 1028.3 0 12.8 23.6 31.1 80.8 64.7 218.7
08/05 05:20 4.2 80 5.16 1.1 13 15 1028.3 0 12.6 23.5 30.9 80.2 63.9 216.0
08/05 05:10 4.4 79 5.16 1.1 13 13 1028.2 0 12.6 23.5 30.8 80.0 63.7 215.5
08/05 05:00 4.4 79 5.16 1.1 13 15 1028.2 0 12.6 23.5 30.8 80.0 63.7 215.5
08/05 04:50 4.5 78 5.13 1 11 11 1028.1 0 12.5 23.4 30.6 79.6 63.2 213.8
08/05 04:40 4.6 77 5.1 0.9 11 13 1028 0 12.5 23.3 30.5 79.2 62.8 212.1
08/05 04:30 4.9 77 5.2 1.2 13 15 1028 0 12.7 23.4 30.7 79.9 63.8 215.9
08/05 04:20 5 78 5.3 1.5 15 15 1028 0 12.9 23.5 31.1 80.9 65.1 220.3
08/05 04:10 4.3 77 5 0.6 13 15 1028 0 12.3 23.2 30.2 78.4 61.7 208.3
08/05 04:00 4.5 76 5 0.6 11 13 1027.9 0 12.3 23.2 30.1 78.2 61.5 207.7
08/05 03:50 5 75 5.1 0.9 13 15 1028 0 12.5 23.2 30.3 78.8 62.4 211.0
08/05 03:40 4.4 77 5.03 0.7 13 15 1028 0 12.3 23.3 30.3 78.6 62.0 209.4
08/05 03:30 4.3 75 4.87 0.3 11 13 1028 0 12.0 23.0 29.7 77.0 60.0 202.3
08/05 03:20 4.7 74 4.93 0.5 11 11 1028.1 0 12.1 23.0 29.8 77.3 60.5 204.0
08/05 03:10 4.8 74 4.97 0.6 13 13 1028 0 12.2 23.1 29.9 77.6 60.9 205.6
08/05 03:00 4.4 76 4.97 0.6 9 11 1028.2 0 12.2 23.2 30.0 78.0 61.2 206.7
08/05 02:50 4.4 76 4.97 0.6 9 11 1028.2 0 12.2 23.2 30.0 78.0 61.2 206.7
08/05 02:40 4.6 75 4.97 0.6 11 11 1028.3 0 12.2 23.1 30.0 77.8 61.1 206.2
08/05 02:30 5 73 4.96 0.6 11 13 1028.2 0 12.2 23.0 29.8 77.3 60.6 204.7
08/05 02:20 5 73 4.96 0.6 13 13 1028.4 0 12.2 23.0 29.8 77.3 60.6 204.7
08/05 02:10 5 73 4.96 0.6 11 13 1028.4 0 12.2 23.0 29.8 77.3 60.6 204.7
08/05 02:00 5.1 73 5 0.7 11 13 1028.4 0 12.2 23.1 29.9 77.7 61.1 206.3
08/05 01:50 5.3 72 4.99 0.7 11 13 1028.4 0 12.2 23.0 29.8 77.3 60.8 205.3
08/05 01:40 5.4 71 4.96 0.6 13 13 1028.4 0 12.1 22.9 29.6 76.9 60.3 203.7
08/05 01:30 5.1 72 4.93 0.5 11 13 1028.4 0 12.1 22.9 29.6 76.9 60.2 203.1
08/05 01:20 4.8 73 4.9 0.4 11 11 1028.5 0 12.0 23.0 29.6 76.9 60.0 202.5
08/05 01:10 5 71 4.83 0.2 11 13 1028.5 0 11.9 22.8 29.3 76.0 59.0 198.8
08/05 01:00 5 71 4.83 0.2 11 13 1028.5 0 11.9 22.8 29.3 76.0 59.0 198.8
08/05 00:50 5.2 71 4.89 0.4 11 11 1028.4 0 12.0 22.9 29.4 76.4 59.6 201.0
08/05 00:40 5 72 4.9 0.4 11 11 1028.3 0 12.0 22.9 29.5 76.7 59.9 201.9
08/05 00:20 4.7 74 4.93 0.5 13 13 1028.4 0 12.1 23.0 29.8 77.3 60.5 204.1
08/05 00:10 4.7 74 4.93 0.5 13 13 1028.5 0 12.1 23.0 29.8 77.3 60.5 204.1
08/05 00:00 4.7 72 4.8 0.1 11 11 1028.4 0 11.8 22.8 29.3 75.9 58.8 198.2
07/05 23:50 4.9 69 4.66 -0.3 11 11 1028.5 0 11.5 22.6 28.6 74.3 56.8 191.3
07/05 23:40 5.3 68 4.72 -0.1 9 11 1028.6 0 11.6 22.6 28.7 74.6 57.3 193.1
07/05 23:30 5.3 68 4.72 -0.1 11 13 1028.5 0 11.6 22.6 28.7 74.5 57.3 193.1
07/05 23:20 5.3 67 4.65 -0.3 9 11 1028.4 0 11.5 22.5 28.5 73.8 56.4 189.9
07/05 23:10 6.1 64 4.68 -0.2 11 11 1028.5 0 11.5 22.3 28.3 73.4 56.2 189.4
07/05 23:00 5.9 65 4.69 -0.2 11 11 1028.6 0 11.5 22.4 28.4 73.7 56.5 190.3
07/05 22:50 5.7 67 4.77 0.1 9 11 1028.6 0 11.7 22.5 28.8 74.7 57.7 194.4
07/05 22:40 5.5 67 4.71 -0.1 9 11 1028.8 0 11.6 22.5 28.6 74.3 57.1 192.2
07/05 22:30 6.2 64 4.71 -0.1 11 11 1028.8 0 11.6 22.3 28.4 73.6 56.6 190.5
07/05 22:20 6.1 64 4.68 -0.2 11 11 1028.8 0 11.5 22.3 28.3 73.4 56.3 189.4
07/05 22:10 6.5 61 4.58 -0.5 11 11 1028.8 0 11.3 22.1 27.8 72.0 54.7 184.1
07/05 22:00 6.6 60 4.53 -0.6 11 13 1028.9 0 11.2 22.0 27.6 71.4 54.0 181.6
07/05 21:50 6.9 59 4.54 -0.5 11 11 1028.9 0 11.2 21.9 27.5 71.3 53.9 181.4
07/05 21:40 6.7 62 4.71 -0.1 11 11 1028.8 0 11.6 22.2 28.2 73.2 56.2 189.3
07/05 21:30 7.1 58 4.53 -0.6 11 13 1028.8 0 11.2 21.8 27.4 71.0 53.7 180.5
07/05 21:20 6.9 59 4.54 -0.5 11 13 1028.7 0 11.2 21.9 27.5 71.3 53.9 181.4
07/05 21:10 7.1 58 4.53 -0.6 11 11 1028.8 0 11.2 21.8 27.4 71.0 53.7 180.5
07/05 21:00 7.3 57 4.51 -0.6 11 11 1028.8 0 11.1 21.8 27.3 70.6 53.3 179.2
07/05 20:50 7 58 4.5 -0.7 11 11 1028.8 0 11.1 21.8 27.3 70.8 53.4 179.4
07/05 20:40 7.5 56 4.48 -0.7 11 13 1028.7 0 11.0 21.7 27.1 70.1 52.8 177.4
07/05 20:30 7.5 55 4.4 -0.9 9 11 1028.6 0 10.9 21.5 26.8 69.3 51.8 174.0
07/05 20:20 8.3 53 4.47 -0.7 9 9 1028.7 0 11.0 21.5 26.8 69.3 52.1 175.2
07/05 20:10 8.2 52 4.36 -1.1 9 11 1028.6 0 10.8 21.3 26.4 68.3 50.9 170.7
07/05 20:00 8.8 50 4.35 -1 9 11 1028.4 0 10.7 21.2 26.2 67.7 50.3 169.0
07/05 19:50 8.7 50 4.33 -1.1 9 11 1028.4 0 10.7 21.2 26.1 67.6 50.2 168.4

Last Refresh: 08-May-2026 12:09:24

Bureau of Meteorology